Time;durP1;ratioP1;P1;durP2;ratioP2;P2;SDS_P1;SDS_P2;PMS_P1;PMS_P2;Temp;Humidity;BMP_temperature;BMP_pressure;BME280_temperature;BME280_humidity;BME280_pressure;Samples;Min_cycle;Max_cycle;Signal;HPM_P1;HPM_P2
2021/07/23 00:02:07;;;;;;;17.48;12.02;;;;;;;12.14;82.74;91094.50;4957666;28;20031;-86
2021/07/23 00:04:52;;;;;;;20.25;11.93;;;;;;;12.08;83.08;91096.56;4972940;28;20026;-85
2021/07/23 00:07:23;;;;;;;17.38;11.60;;;;;;;12.15;82.51;91103.84;4973310;28;20023;-87
2021/07/23 00:09:51;;;;;;;25.40;12.10;;;;;;;12.08;83.38;91096.56;4973392;28;20081;-86
2021/07/23 00:12:35;;;;;;;19.48;11.75;;;;;;;12.06;83.19;91092.78;4957629;28;20026;-86
2021/07/23 00:15:09;;;;;;;17.38;11.35;;;;;;;11.93;83.15;91087.59;4975705;28;20037;-86
2021/07/23 00:17:49;;;;;;;20.70;12.30;;;;;;;11.98;82.83;91096.28;4960162;28;20035;-85
2021/07/23 00:20:26;;;;;;;19.65;11.55;;;;;;;11.89;81.93;91091.97;4942691;28;20347;-86
2021/07/23 00:23:07;;;;;;;19.65;11.73;;;;;;;12.05;82.23;91091.25;4942572;28;20039;-86
2021/07/23 00:25:37;;;;;;;20.48;11.52;;;;;;;12.01;81.89;91079.94;4974753;28;20110;-85
2021/07/23 00:28:17;;;;;;;18.58;11.35;;;;;;;11.90;83.04;91085.63;4958405;28;20034;-85
2021/07/23 00:30:52;;;;;;;20.83;11.73;;;;;;;11.88;82.74;91081.84;4974895;28;20034;-85
2021/07/23 00:33:31;;;;;;;22.08;11.98;;;;;;;11.81;81.81;91090.22;4958800;28;20035;-85
2021/07/23 00:36:08;;;;;;;17.88;10.60;;;;;;;11.76;81.28;91087.81;4974734;28;20050;-86
2021/07/23 00:38:43;;;;;;;21.35;11.80;;;;;;;11.62;81.13;91079.59;4958774;28;20026;-85
2021/07/23 00:41:20;;;;;;;18.83;11.02;;;;;;;11.51;82.31;91079.28;4959458;28;20035;-85
2021/07/23 00:43:48;;;;;;;18.13;11.25;;;;;;;11.49;81.78;91087.44;4957876;28;20034;-85
2021/07/23 00:46:20;;;;;;;18.55;11.63;;;;;;;11.54;82.11;91080.47;4973577;28;20018;-85
2021/07/23 00:48:57;;;;;;;22.25;11.43;;;;;;;11.42;82.10;91082.03;4942227;28;20039;-85
2021/07/23 00:51:31;;;;;;;18.13;11.32;;;;;;;11.31;83.12;91069.75;4958863;28;20442;-85
2021/07/23 00:54:04;;;;;;;;;;;;;;;11.39;83.36;91074.09;4974437;28;20027;-86
2021/07/23 00:56:42;;;;;;;19.55;11.20;;;;;;;11.32;84.21;91072.03;4957450;28;19952;-85
2021/07/23 00:59:21;;;;;;;17.45;11.38;;;;;;;11.37;84.17;91077.00;4959185;28;20058;-85
2021/07/23 01:01:55;;;;;;;18.13;11.27;;;;;;;11.42;84.07;91074.19;4974802;28;20027;-87
2021/07/23 01:04:31;;;;;;;18.45;11.57;;;;;;;11.44;85.34;91069.41;4942973;28;20515;-86
2021/07/23 01:07:07;;;;;;;20.35;11.68;;;;;;;11.56;85.13;91070.50;4975489;28;20034;-85
2021/07/23 01:09:43;;;;;;;18.35;11.38;;;;;;;11.49;84.65;91069.19;4959820;28;20027;-86
2021/07/23 01:12:22;;;;;;;15.68;10.63;;;;;;;11.47;84.77;91063.53;4974854;28;20105;-86
2021/07/23 01:15:05;;;;;;;15.85;10.23;;;;;;;11.58;83.67;91063.06;4957188;28;20042;-86
2021/07/23 01:17:39;;;;;;;19.88;11.35;;;;;;;11.46;83.37;91056.78;4972920;28;20018;-85
2021/07/23 01:20:31;;;;;;;17.45;11.40;;;;;;;11.38;83.52;91049.09;4973870;28;20026;-85
2021/07/23 01:23:07;;;;;;;16.23;10.93;;;;;;;11.29;83.48;91048.44;4978678;28;20030;-85
2021/07/23 01:25:55;;;;;;;17.10;11.43;;;;;;;11.36;82.72;91052.03;4968669;28;20027;-86
2021/07/23 01:28:30;;;;;;;16.55;10.75;;;;;;;11.28;82.36;91047.69;4973686;28;20058;-86
2021/07/23 01:31:08;;;;;;;21.10;11.68;;;;;;;11.14;83.54;91052.50;4958297;28;20027;-85
2021/07/23 01:33:44;;;;;;;18.50;11.75;;;;;;;11.14;84.08;91052.50;4959358;28;20030;-86
2021/07/23 01:36:25;;;;;;;20.63;11.95;;;;;;;11.22;84.83;91049.75;4958733;28;20106;-85
2021/07/23 01:38:58;;;;;;;17.98;12.15;;;;;;;11.21;86.05;91050.09;4961519;28;20034;-85
2021/07/23 01:41:32;;;;;;;19.77;11.70;;;;;;;11.23;85.51;91043.44;4961310;28;20030;-86
2021/07/23 01:44:09;;;;;;;21.50;11.75;;;;;;;11.18;86.18;91035.09;4959882;28;20031;-86
2021/07/23 01:46:46;;;;;;;19.77;12.55;;;;;;;11.21;85.65;91045.63;4960545;28;20031;-86
2021/07/23 01:49:23;;;;;;;15.43;10.80;;;;;;;11.20;85.69;91048.56;4957123;28;20031;-85
2021/07/23 01:52:00;;;;;;;19.88;11.70;;;;;;;11.17;85.94;91039.56;4972856;28;20479;-84
2021/07/23 01:54:34;;;;;;;19.02;11.18;;;;;;;11.18;85.26;91038.47;4956448;29;20027;-86
2021/07/23 01:57:22;;;;;;;19.58;11.35;;;;;;;11.12;84.81;91041.59;4956808;29;20539;-85
2021/07/23 01:59:59;;;;;;;18.15;11.40;;;;;;;11.15;85.43;91038.34;4957565;29;20058;-85
2021/07/23 02:02:34;;;;;;;19.70;11.40;;;;;;;11.12;85.17;91039.75;4974412;28;20027;-86
2021/07/23 02:05:13;;;;;;;18.33;12.05;;;;;;;11.14;85.14;91040.19;4977297;28;20034;-87
2021/07/23 02:07:54;;;;;;;15.65;10.60;;;;;;;11.15;84.08;91035.75;4961702;28;20030;-85
2021/07/23 02:10:41;;;;;;;16.55;10.75;;;;;;;11.04;83.31;91024.25;4962178;28;20026;-86
2021/07/23 02:13:16;;;;;;;16.55;10.88;;;;;;;10.85;84.46;91027.38;4978356;28;20030;-85
2021/07/23 02:15:56;;;;;;;18.67;11.45;;;;;;;10.89;84.67;91026.41;4978042;28;20038;-85
2021/07/23 02:18:29;;;;;;;16.45;10.93;;;;;;;10.84;83.83;91026.63;4963010;28;20623;-85
2021/07/23 02:21:08;;;;;;;18.57;10.80;;;;;;;10.89;83.80;91023.81;4962759;28;20411;-85
2021/07/23 02:23:48;;;;;;;16.30;10.50;;;;;;;10.91;83.11;91019.00;4963705;28;20046;-86
2021/07/23 02:26:31;;;;;;;18.25;10.90;;;;;;;10.84;83.02;91016.19;4963117;28;20117;-85
2021/07/23 02:29:04;;;;;;;18.92;11.40;;;;;;;10.70;84.09;91016.50;4962033;28;20050;-86
2021/07/23 02:31:46;;;;;;;22.15;11.95;;;;;;;10.72;84.99;91008.38;4970360;28;20058;-86
2021/07/23 02:34:23;;;;;;;18.40;11.55;;;;;;;10.70;86.32;91010.53;4963682;28;20033;-85
2021/07/23 02:36:57;;;;;;;19.55;11.85;;;;;;;10.68;85.83;91010.13;4946083;28;20030;-85
2021/07/23 02:39:32;;;;;;;24.30;12.60;;;;;;;10.70;86.81;91013.16;4976527;28;20102;-85
2021/07/23 02:42:09;;;;;;;17.95;11.38;;;;;;;10.63;85.91;91007.72;4961042;28;20038;-86
2021/07/23 02:44:40;;;;;;;17.98;11.05;;;;;;;10.67;86.85;91011.19;4974423;28;20022;-85
2021/07/23 02:47:16;;;;;;;22.90;12.38;;;;;;;10.69;86.33;91007.19;4959711;28;20037;-85
2021/07/23 02:49:54;;;;;;;21.10;12.27;;;;;;;10.70;86.51;91010.53;4942163;28;20031;-87
2021/07/23 02:52:30;;;;;;;18.50;11.82;;;;;;;10.71;86.21;91007.63;4959277;28;20026;-86
2021/07/23 02:55:07;;;;;;;20.70;11.85;;;;;;;10.69;86.40;91001.22;4959575;28;20031;-85
2021/07/23 02:57:43;;;;;;;19.83;12.02;;;;;;;10.61;86.76;91005.44;4959744;28;20023;-85
2021/07/23 03:00:15;;;;;;;18.67;11.52;;;;;;;10.66;86.65;91004.47;4963262;28;20022;-86
2021/07/23 03:02:49;;;;;;;20.08;11.98;;;;;;;10.66;85.69;91001.88;4959158;28;20121;-86
2021/07/23 03:05:26;;;;;;;20.98;11.27;;;;;;;10.67;85.73;91000.78;4958739;29;20038;-86
2021/07/23 03:08:02;;;;;;;19.55;10.95;;;;;;;10.68;85.32;90997.09;4943428;29;20035;-85
2021/07/23 03:10:34;;;;;;;18.45;10.80;;;;;;;10.77;84.36;90995.88;4958728;28;20462;-85
2021/07/23 03:13:10;;;;;;;19.48;11.13;;;;;;;10.64;85.69;90985.81;4942693;28;20110;-85
2021/07/23 03:15:43;;;;;;;17.25;10.93;;;;;;;10.59;86.66;90994.59;4946095;28;20480;-85
2021/07/23 03:18:15;;;;;;;18.13;11.82;;;;;;;10.56;86.97;90984.03;4961755;28;20089;-86
2021/07/23 03:20:51;;;;;;;18.02;11.77;;;;;;;10.54;87.27;90987.00;4977377;28;20102;-85
2021/07/23 03:23:23;;;;;;;19.40;12.25;;;;;;;10.64;86.61;90989.16;5058276;23;20049;-90
2021/07/23 03:26:08;;;;;;;17.23;10.95;;;;;;;10.65;86.18;90995.13;5031712;28;20025;-87
2021/07/23 03:28:48;;;;;;;20.60;11.55;;;;;;;10.58;87.13;90976.69;5015367;28;20049;-87
2021/07/23 03:31:28;;;;;;;18.10;11.50;;;;;;;10.55;86.96;90977.31;5006106;28;20046;-88
2021/07/23 03:34:05;;;;;;;19.63;11.70;;;;;;;10.55;87.30;90985.16;5014591;28;20022;-88
2021/07/23 03:36:46;;;;;;;18.20;11.98;;;;;;;10.51;87.34;90988.41;5019011;28;20453;-86
2021/07/23 03:39:23;;;;;;;20.17;11.25;;;;;;;10.49;87.27;90987.19;5008526;28;20034;-87
2021/07/23 03:41:56;;;;;;;16.02;11.13;;;;;;;10.55;87.01;90974.72;5008244;28;20495;-88
2021/07/23 03:44:35;;;;;;;21.75;11.65;;;;;;;10.53;87.34;90977.66;5008732;28;20022;-86
2021/07/23 03:47:13;;;;;;;16.27;11.18;;;;;;;10.51;86.92;90977.97;4992793;28;20490;-89
2021/07/23 03:49:53;;;;;;;20.98;12.00;;;;;;;10.52;87.35;90983.94;4992104;28;20026;-87
2021/07/23 03:52:34;;;;;;;21.35;12.30;;;;;;;10.42;87.62;90977.31;4992718;28;20398;-88
2021/07/23 03:55:13;;;;;;;21.55;11.75;;;;;;;10.50;87.38;90976.47;5008780;28;20058;-87
2021/07/23 03:57:49;;;;;;;19.13;11.82;;;;;;;10.49;86.83;90977.56;4976169;28;20031;-87
2021/07/23 04:00:28;;;;;;;17.67;11.32;;;;;;;10.40;86.61;90971.69;5007952;28;20026;-88
2021/07/23 04:03:08;;;;;;;18.40;11.85;;;;;;;10.42;86.48;90977.31;4992209;28;20037;-87
2021/07/23 04:05:45;;;;;;;20.17;11.63;;;;;;;10.38;86.82;90980.88;5007130;28;20030;-87
2021/07/23 04:08:18;;;;;;;21.70;11.18;;;;;;;10.41;86.36;90972.44;4992087;28;20108;-88
2021/07/23 04:10:59;;;;;;;17.15;10.90;;;;;;;10.41;86.08;90973.19;4991396;28;20036;-87
2021/07/23 04:13:39;;;;;;;19.90;11.10;;;;;;;10.39;86.40;90980.59;4991724;28;20050;-86
2021/07/23 04:16:18;;;;;;;19.50;11.48;;;;;;;10.46;86.17;90974.84;4992658;28;20027;-87
2021/07/23 04:18:59;;;;;;;16.65;10.85;;;;;;;10.41;84.99;90978.41;4992955;28;20375;-88
2021/07/23 04:21:35;;;;;;;25.13;11.98;;;;;;;10.26;85.57;90973.84;5008156;28;20026;-89
2021/07/23 04:24:11;;;;;;;20.20;11.45;;;;;;;10.44;85.94;90977.00;5010055;28;20049;-87
2021/07/23 04:26:50;;;;;;;19.70;11.55;;;;;;;10.38;85.58;90981.66;5025485;28;20033;-88
2021/07/23 04:29:27;;;;;;;17.00;10.73;;;;;;;10.44;85.15;90966.56;4981071;28;20093;-88
2021/07/23 04:32:01;;;;;;;18.08;10.95;;;;;;;10.50;84.67;90975.69;4997654;28;20034;-87
2021/07/23 04:34:37;;;;;;;15.05;10.20;;;;;;;10.62;84.46;90974.94;4998133;28;20029;-87
2021/07/23 04:37:11;;;;;;;17.15;11.00;;;;;;;10.56;85.29;90979.59;4998577;28;20038;-87
2021/07/23 04:39:47;;;;;;;17.70;11.52;;;;;;;10.56;86.16;90981.44;4982718;28;20026;-86
2021/07/23 04:42:19;;;;;;;26.38;12.73;;;;;;;10.61;86.44;90979.41;4999598;28;20026;-86
2021/07/23 04:44:57;;;;;;;19.75;11.70;;;;;;;10.77;86.34;90984.69;4998551;28;20100;-87
2021/07/23 04:47:31;;;;;;;19.63;11.27;;;;;;;10.86;85.71;90979.38;5008808;28;20033;-87
2021/07/23 04:50:10;;;;;;;21.88;11.90;;;;;;;10.92;85.76;90978.84;5010343;28;20018;-86
2021/07/23 04:52:49;;;;;;;18.85;11.77;;;;;;;11.00;85.39;90983.16;4980010;28;20038;-86
2021/07/23 04:55:25;;;;;;;18.23;11.35;;;;;;;11.03;85.79;90981.00;4964355;28;20035;-87
2021/07/23 04:58:05;;;;;;;19.25;12.20;;;;;;;11.22;85.49;90986.38;4979578;28;20030;-87
2021/07/23 05:00:44;;;;;;;19.27;11.02;;;;;;;11.23;86.00;90980.06;4978410;28;20038;-87
2021/07/23 05:03:23;;;;;;;17.85;11.25;;;;;;;11.31;85.37;90971.38;4993701;28;20034;-87
2021/07/23 05:05:53;;;;;;;19.73;11.27;;;;;;;11.45;84.82;90987.44;4977996;28;20035;-87
2021/07/23 05:08:27;;;;;;;17.27;11.00;;;;;;;11.32;84.54;90974.75;4961649;28;20097;-87
2021/07/23 05:10:57;;;;;;;21.60;11.57;;;;;;;11.33;84.86;90977.00;4961593;28;20030;-89
2021/07/23 05:13:33;;;;;;;17.80;10.63;;;;;;;11.54;84.36;90981.31;4979888;28;20121;-87
2021/07/23 05:16:06;;;;;;;21.02;11.68;;;;;;;11.43;85.42;90979.16;4984640;28;20490;-87
2021/07/23 05:18:43;;;;;;;20.38;12.93;;;;;;;11.47;85.16;90966.97;5022153;28;20474;-87
2021/07/23 05:21:16;;;;;;;19.10;12.40;;;;;;;11.59;84.85;90970.63;5039168;28;20072;-87
2021/07/23 05:23:53;;;;;;;20.42;13.55;;;;;;;11.66;84.77;90983.88;5015441;28;20502;-87
2021/07/23 05:26:29;;;;;;;18.52;12.07;;;;;;;11.79;84.68;90981.97;4985698;28;20064;-87
2021/07/23 05:29:05;;;;;;;18.00;12.23;;;;;;;11.82;85.61;90989.16;5008612;28;20061;-88
2021/07/23 05:31:45;;;;;;;17.17;11.70;;;;;;;12.01;85.47;90983.31;5015113;28;20030;-87
2021/07/23 05:34:20;;;;;;;18.80;12.13;;;;;;;12.09;85.60;90983.19;5000161;28;20037;-88
2021/07/23 05:36:52;;;;;;;18.70;11.60;;;;;;;12.17;85.16;90984.09;5002345;28;20022;-87
2021/07/23 05:39:27;;;;;;;18.75;12.18;;;;;;;12.22;85.28;90978.63;4983570;28;20033;-87
2021/07/23 05:42:11;;;;;;;23.33;13.35;;;;;;;12.33;85.06;90978.88;5009401;28;20037;-88
2021/07/23 05:44:39;;;;;;;19.73;12.75;;;;;;;12.44;85.33;90977.31;5024940;28;20033;-87
2021/07/23 05:47:05;;;;;;;16.90;11.23;;;;;;;12.52;84.85;90973.00;4995764;28;20050;-88
2021/07/23 05:49:34;;;;;;;17.50;11.23;;;;;;;12.69;84.27;90980.50;5012733;28;20037;-88
2021/07/23 05:52:00;;;;;;;17.70;11.38;;;;;;;12.89;84.08;90987.31;5030608;28;20018;-87
2021/07/23 05:54:32;;;;;;;16.52;11.80;;;;;;;12.90;84.17;90972.38;5019991;28;20029;-87
2021/07/23 05:56:59;;;;;;;17.88;10.52;;;;;;;12.96;84.34;90980.72;5012956;28;20018;-88
2021/07/23 05:59:32;;;;;;;16.42;11.63;;;;;;;13.00;84.49;90974.47;5012159;28;20026;-87
2021/07/23 06:01:58;;;;;;;15.40;10.82;;;;;;;13.14;84.63;90976.63;5015515;28;20029;-88
2021/07/23 06:04:24;;;;;;;17.65;11.32;;;;;;;13.22;83.96;90973.09;4997711;28;20141;-88
2021/07/23 06:06:51;;;;;;;16.90;10.60;;;;;;;13.33;84.08;90973.34;4997203;28;20029;-88
2021/07/23 06:09:17;;;;;;;20.65;11.75;;;;;;;13.34;83.89;90954.66;5030241;28;20401;-86
2021/07/23 06:11:50;;;;;;;18.08;11.38;;;;;;;13.55;84.15;90969.28;5028158;28;20033;-87
2021/07/23 06:14:18;;;;;;;21.73;12.32;;;;;;;13.61;83.94;90962.69;5004480;28;20014;-87
2021/07/23 06:16:44;;;;;;;20.52;12.23;;;;;;;13.70;83.87;90959.84;5022280;28;20014;-87
2021/07/23 06:19:10;;;;;;;17.73;12.10;;;;;;;13.94;83.38;90975.25;4997016;28;20113;-87
2021/07/23 06:21:35;;;;;;;17.25;11.90;;;;;;;13.97;83.89;90971.94;5018328;28;20022;-88
2021/07/23 06:24:03;;;;;;;17.08;11.80;;;;;;;14.05;83.86;90970.22;4993537;28;20053;-87
2021/07/23 06:26:30;;;;;;;18.27;11.95;;;;;;;14.23;85.22;90981.75;5014279;28;20454;-87
2021/07/23 06:28:58;;;;;;;23.73;13.05;;;;;;;14.34;84.15;90972.22;5003905;28;20030;-87
2021/07/23 06:31:24;;;;;;;19.17;13.23;;;;;;;14.43;84.52;90966.00;4998029;28;20022;-87
2021/07/23 06:33:50;;;;;;;16.88;12.35;;;;;;;14.60;84.01;90975.31;4999820;28;20054;-87
2021/07/23 06:36:15;;;;;;;20.65;12.30;;;;;;;14.71;83.91;90969.09;4995483;28;20025;-87
2021/07/23 06:38:41;;;;;;;18.25;12.57;;;;;;;14.80;83.77;90969.59;5000902;28;20025;-87
2021/07/23 06:41:08;;;;;;;19.25;12.93;;;;;;;14.87;82.39;90966.34;5014340;28;20014;-90
2021/07/23 06:43:38;;;;;;;23.77;14.10;;;;;;;15.06;81.59;90970.75;5002847;28;20034;-88
2021/07/23 06:46:12;;;;;;;21.27;12.77;;;;;;;15.18;82.69;90973.16;4999159;28;20022;-89
2021/07/23 06:48:47;;;;;;;22.48;13.05;;;;;;;15.27;79.54;90975.53;5001574;28;20029;-87
2021/07/23 06:51:24;;;;;;;19.40;12.43;;;;;;;15.52;79.27;90965.38;5020180;28;20051;-87
2021/07/23 06:54:02;;;;;;;23.50;12.82;;;;;;;15.70;79.16;90971.63;5051583;28;20024;-88
2021/07/23 06:56:40;;;;;;;21.35;12.30;;;;;;;15.80;78.21;90962.34;5017927;28;20057;-87
2021/07/23 06:59:06;;;;;;;19.13;12.85;;;;;;;15.90;75.43;90959.09;5019139;28;20026;-86
2021/07/23 07:01:44;;;;;;;22.45;12.65;;;;;;;16.01;74.30;90956.56;5029354;28;20036;-85
2021/07/23 07:04:21;;;;;;;20.40;12.63;;;;;;;16.24;73.86;90970.31;4979622;28;20026;-87
2021/07/23 07:07:01;;;;;;;20.13;12.25;;;;;;;16.31;73.04;90950.47;4998156;28;20030;-88
2021/07/23 07:09:43;;;;;;;17.02;12.02;;;;;;;16.41;73.93;90970.84;4996123;28;20401;-87
2021/07/23 07:12:16;;;;;;;19.40;12.27;;;;;;;16.61;74.83;90960.91;5012293;28;20116;-86
2021/07/23 07:14:54;;;;;;;21.42;12.70;;;;;;;16.90;74.54;90960.03;5027502;28;20017;-86
2021/07/23 07:17:36;;;;;;;21.15;12.40;;;;;;;16.94;71.85;90952.91;5011958;28;20026;-88
2021/07/23 07:20:16;;;;;;;17.77;11.35;;;;;;;17.15;70.32;90957.56;5011531;28;20048;-87
2021/07/23 07:22:44;;;;;;;18.70;12.05;;;;;;;17.20;70.30;90957.19;4996784;28;20057;-87
2021/07/23 07:25:18;;;;;;;21.77;12.80;;;;;;;17.31;72.94;90959.91;4991175;28;20022;-87
2021/07/23 07:27:53;;;;;;;19.52;12.18;;;;;;;17.32;70.25;90947.50;4981210;28;20030;-87
2021/07/23 07:30:29;;;;;;;17.80;11.82;;;;;;;17.47;71.05;90946.44;5027525;28;20057;-87
2021/07/23 07:33:02;;;;;;;18.85;12.10;;;;;;;17.52;69.64;90946.09;5009077;28;20030;-88
2021/07/23 07:35:37;;;;;;;18.67;11.77;;;;;;;17.53;71.16;90942.34;4992018;28;20037;-87
2021/07/23 07:38:16;;;;;;;17.92;11.20;;;;;;;17.71;68.50;90944.31;5008530;28;20030;-87
2021/07/23 07:40:44;;;;;;;18.35;12.60;;;;;;;17.77;67.96;90943.59;4991691;28;20465;-87
2021/07/23 07:43:19;;;;;;;17.67;11.50;;;;;;;17.71;66.92;90933.75;5008216;28;20018;-87
2021/07/23 07:45:52;;;;;;;17.15;11.57;;;;;;;17.90;70.36;90946.66;5009615;28;20426;-87
2021/07/23 07:48:29;;;;;;;19.60;11.30;;;;;;;18.16;69.23;90942.94;5009124;28;20026;-87
2021/07/23 07:51:06;;;;;;;18.08;11.77;;;;;;;18.21;65.45;90933.94;5026351;28;20105;-89
2021/07/23 07:53:41;;;;;;;18.05;12.10;;;;;;;18.39;66.71;90940.75;5003404;28;20018;-88
2021/07/23 07:56:15;;;;;;;18.77;12.60;;;;;;;18.61;67.08;90943.41;5011161;28;20295;-88
2021/07/23 07:58:45;;;;;;;17.50;11.95;;;;;;;18.73;66.02;90942.28;5008360;28;20046;-87
2021/07/23 08:01:23;;;;;;;16.77;12.05;;;;;;;18.70;65.30;90922.69;5008424;28;20546;-87
2021/07/23 08:03:54;;;;;;;20.20;11.85;;;;;;;18.79;63.85;90938.16;4992408;28;20113;-87
2021/07/23 08:06:34;;;;;;;17.95;12.05;;;;;;;18.94;63.92;90933.63;5009585;28;20525;-87
2021/07/23 08:09:16;;;;;;;19.75;11.57;;;;;;;18.95;64.68;90933.25;4993357;28;20053;-87
2021/07/23 08:11:44;;;;;;;22.95;12.35;;;;;;;19.07;62.14;90938.13;5008959;28;20033;-88
2021/07/23 08:14:16;;;;;;;17.42;11.90;;;;;;;19.02;65.03;90941.19;5008756;28;20026;-87
2021/07/23 08:16:44;;;;;;;19.25;11.93;;;;;;;19.01;63.57;90931.75;4992269;28;20030;-88
2021/07/23 08:19:15;;;;;;;17.30;11.80;;;;;;;19.02;65.30;90927.97;5009297;28;20026;-87
2021/07/23 08:21:44;;;;;;;17.92;12.60;;;;;;;19.22;65.11;90924.91;5009183;28;20026;-87
2021/07/23 08:24:24;;;;;;;18.95;12.55;;;;;;;19.49;65.10;90927.88;5008994;28;20034;-87
2021/07/23 08:26:50;;;;;;;20.27;12.25;;;;;;;19.56;64.22;90925.97;5025813;28;20033;-87
2021/07/23 08:29:17;;;;;;;18.52;11.90;;;;;;;19.57;61.30;90916.16;5013384;28;20030;-87
2021/07/23 08:31:50;;;;;;;18.10;11.88;;;;;;;19.70;61.30;90927.84;4995631;28;20080;-87
2021/07/23 08:34:16;;;;;;;19.80;12.52;;;;;;;19.68;60.14;90918.78;4996422;28;20022;-87
2021/07/23 08:36:51;;;;;;;20.02;12.50;;;;;;;19.89;63.24;90916.03;5011612;28;20076;-88
2021/07/23 08:39:20;;;;;;;21.90;12.02;;;;;;;19.85;59.05;90910.03;4995796;28;20034;-87
2021/07/23 08:41:51;;;;;;;16.70;10.93;;;;;;;19.94;58.87;90912.25;4995148;28;20235;-87
2021/07/23 08:44:17;;;;;;;20.63;12.82;;;;;;;20.03;58.07;90917.88;4995924;28;20025;-86
2021/07/23 08:46:43;;;;;;;17.88;12.10;;;;;;;19.99;61.31;90911.84;5012261;28;20034;-88
2021/07/23 08:49:15;;;;;;;18.92;11.65;;;;;;;20.26;61.35;90915.50;5032328;28;20053;-87
2021/07/23 08:51:55;;;;;;;22.70;12.55;;;;;;;20.47;59.98;90909.31;5032224;28;20017;-89
2021/07/23 08:54:21;;;;;;;20.70;11.63;;;;;;;20.74;58.58;90916.69;5031142;28;20038;-88
2021/07/23 08:56:49;;;;;;;18.00;12.00;;;;;;;21.00;58.99;90924.06;5015200;28;20018;-88
2021/07/23 08:59:15;;;;;;;19.83;12.30;;;;;;;21.17;59.86;90921.66;5014763;28;20026;-87
2021/07/23 09:01:57;;;;;;;16.13;11.98;;;;;;;21.22;57.49;90919.31;4998209;28;20122;-88
2021/07/23 09:04:30;;;;;;;17.50;11.90;;;;;;;21.44;59.15;90914.59;5014265;28;20080;-89
2021/07/23 09:07:14;;;;;;;18.42;11.50;;;;;;;21.64;56.41;90919.31;5014582;28;20052;-88
2021/07/23 09:09:40;;;;;;;17.50;12.27;;;;;;;21.87;56.17;90916.78;5014163;28;20025;-88
2021/07/23 09:12:17;;;;;;;17.50;12.10;;;;;;;21.91;55.85;90917.50;5014896;28;20032;-88
2021/07/23 09:14:46;;;;;;;20.88;12.55;;;;;;;22.11;53.44;90907.00;5014483;28;20467;-88
2021/07/23 09:17:18;;;;;;;20.98;11.75;;;;;;;22.21;52.86;90902.72;5014407;28;20037;-88
2021/07/23 09:20:02;;;;;;;18.75;10.48;;;;;;;22.59;53.79;90913.97;5014313;28;20117;-88
2021/07/23 09:25:14;;;;;;;17.48;11.40;;;;;;;22.65;48.29;90900.97;4993942;28;20034;-87
2021/07/23 09:27:45;;;;;;;17.80;11.88;;;;;;;22.74;51.82;90898.56;4979055;28;20030;-86
2021/07/23 09:30:27;;;;;;;21.75;11.60;;;;;;;22.91;48.09;90902.84;4962548;28;20022;-87
2021/07/23 09:33:03;;;;;;;17.80;11.10;;;;;;;23.09;51.25;90907.16;4966507;28;20482;-87
2021/07/23 09:35:37;;;;;;;18.35;11.60;;;;;;;23.06;50.13;90899.97;4997799;28;20473;-87
2021/07/23 09:38:14;;;;;;;16.02;11.20;;;;;;;23.18;48.53;90894.09;4998057;28;20029;-86
2021/07/23 09:40:48;;;;;;;20.75;11.05;;;;;;;23.35;47.65;90892.25;4998172;28;20030;-86
2021/07/23 09:43:37;;;;;;;16.40;10.15;;;;;;;23.45;47.48;90893.22;4997650;28;20476;-86
2021/07/23 09:46:28;;;;;;;19.13;10.75;;;;;;;23.49;46.88;90896.56;5013453;28;20030;-86
2021/07/23 09:49:02;;;;;;;16.85;10.18;;;;;;;23.52;48.55;90885.88;4998363;28;20021;-87
2021/07/23 09:51:36;;;;;;;22.13;12.13;;;;;;;23.51;50.78;90884.38;4997372;28;20057;-86
2021/07/23 09:54:12;;;;;;;19.23;11.60;;;;;;;23.55;50.92;90885.06;4997178;28;20565;-87
2021/07/23 09:56:51;;;;;;;15.68;10.45;;;;;;;23.66;48.23;90879.53;4981932;28;20053;-87
2021/07/23 09:59:28;;;;;;;16.15;11.40;;;;;;;23.79;49.92;90872.47;4997628;28;20025;-86
2021/07/23 10:02:10;;;;;;;16.33;11.50;;;;;;;23.83;49.42;90872.41;4997453;28;20412;-87
2021/07/23 10:04:51;;;;;;;16.58;10.48;;;;;;;23.60;46.04;90873.19;4982803;28;20026;-87
2021/07/23 10:07:31;;;;;;;18.17;11.00;;;;;;;23.27;46.78;90878.34;4982313;28;20052;-87
2021/07/23 10:10:06;;;;;;;17.42;10.25;;;;;;;23.54;49.06;90872.19;4982238;28;20061;-86
2021/07/23 10:12:42;;;;;;;16.00;10.32;;;;;;;23.80;47.62;90860.66;4997751;28;20030;-86
2021/07/23 10:15:18;;;;;;;16.88;10.82;;;;;;;23.80;46.63;90868.63;4981859;28;20052;-87
2021/07/23 10:17:51;;;;;;;16.85;11.25;;;;;;;23.80;44.83;90868.63;4982206;28;20109;-87
2021/07/23 10:20:25;;;;;;;20.38;10.77;;;;;;;23.95;43.13;90852.38;4981609;28;20026;-86
2021/07/23 10:22:57;;;;;;;16.58;10.90;;;;;;;24.00;43.60;90854.56;4996357;28;20113;-86
2021/07/23 10:25:34;;;;;;;21.67;11.02;;;;;;;24.05;45.38;90848.75;4987893;28;20029;-87
2021/07/23 10:28:13;;;;;;;17.60;11.10;;;;;;;24.09;42.32;90844.09;4984832;28;20433;-87
2021/07/23 10:30:47;;;;;;;15.10;10.75;;;;;;;24.27;44.62;90852.44;5017472;28;20047;-86
2021/07/23 10:33:46;;;;;;;18.48;10.20;;;;;;;24.42;43.30;90847.59;5016306;28;20017;-87
2021/07/23 10:36:37;;;;;;;15.07;10.20;;;;;;;24.54;42.79;90844.28;5003303;28;20021;-88
2021/07/23 10:39:19;;;;;;;14.13;10.48;;;;;;;24.69;43.35;90833.28;5015906;28;20486;-87
2021/07/23 10:41:58;;;;;;;21.23;10.82;;;;;;;24.79;44.15;90838.34;5016850;28;20032;-86
2021/07/23 10:44:37;;;;;;;15.15;11.25;;;;;;;24.74;43.45;90822.88;5033848;28;20312;-86
2021/07/23 10:47:19;;;;;;;17.30;10.45;;;;;;;24.96;43.04;90820.44;5034004;28;20169;-86
2021/07/23 10:49:53;;;;;;;15.68;10.50;;;;;;;24.97;43.79;90826.50;4988395;28;20033;-88
2021/07/23 10:52:34;;;;;;;14.32;10.10;;;;;;;25.19;42.44;90826.75;4961041;28;20030;-87
2021/07/23 10:55:19;;;;;;;14.38;10.25;;;;;;;25.04;42.82;90823.66;4961325;28;20110;-87
2021/07/23 10:58:11;;;;;;;18.33;10.07;;;;;;;24.92;38.96;90821.69;5002124;28;20022;-89
2021/07/23 11:00:58;;;;;;;18.38;10.32;;;;;;;24.88;40.73;90819.13;4979581;28;20022;-87
2021/07/23 11:03:50;;;;;;;15.40;10.55;;;;;;;25.24;42.80;90813.66;4980175;28;20331;-87
2021/07/23 11:06:24;;;;;;;14.82;9.57;;;;;;;25.35;42.22;90807.28;4976432;28;20606;-87
2021/07/23 11:08:58;;;;;;;17.95;10.18;;;;;;;25.01;38.75;90805.84;4976530;28;20147;-88
2021/07/23 11:11:30;;;;;;;15.05;9.15;;;;;;;25.08;39.81;90795.00;4959863;28;20034;-87
2021/07/23 11:14:28;;;;;;;19.27;9.95;;;;;;;25.52;40.07;90806.81;4960168;28;20045;-88
2021/07/23 11:17:08;;;;;;;15.40;9.45;;;;;;;25.57;39.70;90802.88;4993687;28;20046;-87
2021/07/23 11:19:45;;;;;;;17.20;10.43;;;;;;;25.66;41.33;90799.59;4960846;28;20026;-87
2021/07/23 11:22:26;;;;;;;14.75;10.02;;;;;;;25.62;40.02;90793.56;4961030;28;20375;-87
2021/07/23 11:25:11;;;;;;;21.38;9.82;;;;;;;25.78;38.65;90795.44;4965496;28;20478;-87
2021/07/23 11:27:46;;;;;;;16.73;9.95;;;;;;;25.78;40.19;90785.50;5000547;28;20037;-87
2021/07/23 11:30:29;;;;;;;15.38;9.93;;;;;;;25.82;39.77;90790.78;5014508;28;20059;-87
2021/07/23 11:33:08;;;;;;;19.80;10.02;;;;;;;25.97;37.69;90789.94;4983068;28;20036;-88
2021/07/23 11:35:44;;;;;;;15.13;10.38;;;;;;;25.77;38.19;90791.28;5015859;28;20489;-87
2021/07/23 11:38:23;;;;;;;15.25;10.75;;;;;;;25.85;38.87;90789.91;4998924;28;20117;-87
2021/07/23 11:41:11;;;;;;;16.42;9.90;;;;;;;26.02;37.01;90782.56;5015894;28;20104;-87
2021/07/23 11:43:52;;;;;;;15.32;10.63;;;;;;;26.08;41.21;90784.28;4999313;28;20033;-88
2021/07/23 11:46:26;;;;;;;17.23;10.27;;;;;;;26.39;40.39;90781.78;4997700;28;20033;-88
2021/07/23 11:49:01;;;;;;;16.63;9.55;;;;;;;26.50;39.49;90778.81;4999354;28;20025;-88
2021/07/23 11:51:48;;;;;;;14.65;9.63;;;;;;;26.46;36.41;90786.16;4999168;28;20029;-87
2021/07/23 11:54:24;;;;;;;14.23;9.68;;;;;;;26.12;35.28;90776.91;4998580;28;20026;-87
2021/07/23 11:57:03;;;;;;;14.15;9.43;;;;;;;25.95;33.25;90772.84;5015250;28;20026;-87
2021/07/23 11:59:42;;;;;;;11.80;8.98;;;;;;;25.98;32.98;90772.00;4981592;28;20140;-87